createdAt,value
2017-07-01T00:02:14.218Z,14.90
2017-07-01T00:04:43.788Z,14.90
2017-07-01T00:07:13.460Z,14.90
2017-07-01T00:09:43.512Z,14.90
2017-07-01T00:12:13.386Z,14.90
2017-07-01T00:14:44.701Z,14.90
2017-07-01T00:17:14.563Z,14.80
2017-07-01T00:19:44.268Z,14.80
2017-07-01T00:22:14.691Z,14.80
2017-07-01T00:24:44.514Z,14.80
2017-07-01T00:27:14.518Z,14.80
2017-07-01T00:29:44.346Z,14.80
2017-07-01T00:32:14.300Z,14.70
2017-07-01T00:34:44.523Z,14.70
2017-07-01T00:37:15.411Z,14.70
2017-07-01T00:39:45.391Z,14.70
2017-07-01T00:42:16.295Z,14.70
2017-07-01T00:45:16.989Z,14.70
2017-07-01T00:47:47.296Z,14.70
2017-07-01T00:50:17.193Z,14.60
2017-07-01T00:52:47.949Z,14.40
2017-07-01T00:55:19.094Z,14.30
2017-07-01T00:57:49.080Z,14.30
2017-07-01T01:00:19.167Z,14.30
2017-07-01T01:02:49.477Z,14.30
2017-07-01T01:05:19.395Z,14.30
2017-07-01T01:07:48.924Z,14.20
2017-07-01T01:10:18.427Z,14.10
2017-07-01T01:12:48.026Z,14.00
2017-07-01T01:15:17.971Z,13.90
2017-07-01T01:17:47.510Z,13.90
2017-07-01T01:20:17.488Z,13.90
2017-07-01T01:22:47.470Z,13.90
2017-07-01T01:25:17.591Z,13.90
2017-07-01T01:27:48.186Z,13.90
2017-07-01T01:30:18.321Z,13.90
2017-07-01T01:32:48.164Z,14.00
2017-07-01T01:35:18.565Z,14.00
2017-07-01T01:37:48.595Z,14.00
2017-07-01T01:40:18.511Z,14.10
2017-07-01T01:42:48.315Z,14.10
2017-07-01T01:45:18.140Z,14.10
2017-07-01T01:47:48.533Z,14.10
2017-07-01T01:50:18.223Z,14.10
2017-07-01T01:52:48.805Z,14.10
2017-07-01T01:55:19.035Z,14.00
2017-07-01T01:57:55.459Z,14.00
2017-07-01T02:00:25.594Z,14.00
2017-07-01T02:02:55.709Z,14.00
2017-07-01T02:05:25.589Z,14.00
2017-07-01T02:08:01.393Z,14.10
2017-07-01T02:10:31.946Z,14.10
2017-07-01T02:13:02.657Z,14.20
2017-07-01T02:15:33.006Z,14.20
2017-07-01T02:18:03.262Z,14.30
2017-07-01T02:20:35.884Z,14.30
2017-07-01T02:23:05.627Z,14.30
2017-07-01T02:25:35.274Z,14.40
2017-07-01T02:28:05.428Z,14.40
2017-07-01T02:30:35.479Z,14.40
2017-07-01T02:33:05.553Z,14.40
2017-07-01T02:35:36.392Z,14.30
2017-07-01T02:38:06.443Z,14.30
2017-07-01T02:40:36.368Z,14.30
2017-07-01T02:43:06.283Z,14.30
2017-07-01T02:45:37.499Z,14.20
2017-07-01T02:48:07.952Z,14.20
2017-07-01T02:50:37.934Z,14.20
2017-07-01T02:53:07.847Z,14.20
2017-07-01T02:55:38.783Z,14.20
2017-07-01T02:58:09.191Z,14.20
2017-07-01T03:00:39.355Z,14.20
2017-07-01T03:03:09.247Z,14.20
2017-07-01T03:05:39.213Z,14.30
2017-07-01T03:08:10.530Z,14.30
2017-07-01T03:10:40.475Z,14.30
2017-07-01T03:13:10.355Z,14.30
2017-07-01T03:15:40.295Z,14.30
2017-07-01T03:18:10.517Z,14.30
2017-07-01T03:20:41.947Z,14.20
2017-07-01T03:23:11.928Z,14.20
2017-07-01T03:25:45.332Z,14.20
2017-07-01T03:28:15.598Z,14.20
2017-07-01T03:30:45.475Z,14.20
2017-07-01T03:33:15.512Z,14.20
2017-07-01T03:35:45.552Z,14.20
2017-07-01T03:38:16.099Z,14.20
2017-07-01T03:40:46.881Z,14.20
2017-07-01T03:43:16.467Z,14.20
2017-07-01T03:45:46.311Z,14.20
2017-07-01T03:48:16.605Z,14.20
2017-07-01T03:50:46.354Z,14.20
2017-07-01T03:53:16.351Z,14.30
2017-07-01T03:55:45.987Z,14.20
2017-07-01T03:58:15.893Z,14.20
2017-07-01T04:00:46.011Z,14.10
2017-07-01T04:03:15.635Z,14.10
2017-07-01T04:05:45.584Z,14.00
2017-07-01T04:08:15.556Z,14.00
2017-07-01T04:10:45.781Z,13.90
2017-07-01T04:13:16.180Z,13.90
2017-07-01T04:15:45.819Z,13.90
2017-07-01T04:18:15.701Z,13.80
2017-07-01T04:20:46.041Z,13.80
2017-07-01T04:23:15.839Z,13.70
2017-07-01T04:25:45.723Z,13.70
2017-07-01T04:28:15.700Z,13.70
2017-07-01T04:30:45.659Z,13.70
2017-07-01T04:33:15.703Z,13.60
2017-07-01T04:35:45.299Z,13.60
2017-07-01T04:38:14.913Z,13.60
2017-07-01T04:40:45.371Z,13.60
2017-07-01T04:43:16.335Z,13.50
2017-07-01T04:45:47.343Z,13.50
2017-07-01T04:48:17.242Z,13.40
2017-07-01T04:50:54.871Z,13.40
2017-07-01T04:53:29.046Z,13.30
2017-07-01T04:55:59.176Z,13.30
2017-07-01T04:58:28.987Z,13.30
2017-07-01T05:00:58.897Z,13.40
2017-07-01T05:03:28.930Z,13.40
2017-07-01T05:05:59.156Z,13.50
2017-07-01T05:08:28.863Z,13.50
2017-07-01T05:10:58.398Z,13.50
2017-07-01T05:13:28.491Z,13.50
2017-07-01T05:15:58.104Z,13.60
2017-07-01T05:18:27.618Z,13.70
2017-07-01T05:20:57.466Z,13.80
2017-07-01T05:23:27.052Z,13.90
2017-07-01T05:25:56.631Z,14.00
2017-07-01T05:28:26.162Z,14.10
2017-07-01T05:30:55.755Z,14.10
2017-07-01T05:33:25.712Z,14.20
2017-07-01T05:35:55.241Z,14.20
2017-07-01T05:38:25.023Z,14.30
2017-07-01T05:40:55.479Z,14.40
2017-07-01T05:43:25.984Z,14.50
2017-07-01T05:45:56.154Z,14.60
2017-07-01T05:48:25.754Z,14.70
2017-07-01T05:50:56.932Z,14.80
2017-07-01T05:53:26.891Z,15.00
2017-07-01T05:55:56.447Z,15.10
2017-07-01T05:58:27.093Z,15.10
2017-07-01T06:00:56.835Z,15.30
2017-07-01T06:03:26.430Z,15.50
2017-07-01T06:05:56.326Z,15.60
2017-07-01T06:08:26.871Z,16.00
2017-07-01T06:10:56.448Z,16.40
2017-07-01T06:13:27.520Z,16.50
2017-07-01T06:15:57.116Z,16.80
2017-07-01T06:18:30.024Z,16.90
2017-07-01T06:20:59.595Z,17.30
2017-07-01T06:23:29.179Z,17.50
2017-07-01T06:25:59.075Z,17.80
2017-07-01T06:28:28.761Z,18.50
2017-07-01T06:30:58.590Z,19.20
2017-07-01T06:33:28.735Z,20.70
2017-07-01T06:36:03.337Z,21.00
2017-07-01T06:38:34.259Z,20.40
2017-07-01T06:41:03.850Z,20.40
2017-07-01T06:43:36.674Z,19.80
2017-07-01T06:46:08.343Z,19.70
2017-07-01T08:25:13.768Z,19.50
2017-07-01T08:27:46.384Z,19.40
2017-07-01T08:30:51.194Z,19.70
2017-07-01T08:33:35.284Z,19.90
2017-07-01T08:36:09.318Z,20.00
2017-07-01T08:38:51.295Z,20.00
2017-07-01T08:45:16.521Z,20.30
2017-07-01T09:01:51.246Z,19.10
2017-07-01T09:14:08.977Z,19.90
2017-07-01T09:24:06.084Z,19.80
2017-07-01T09:46:54.834Z,21.10
2017-07-01T09:49:31.087Z,21.00
2017-07-01T09:52:14.268Z,21.40
2017-07-01T09:58:18.097Z,22.50
2017-07-01T10:04:51.588Z,21.30
2017-07-01T10:08:11.624Z,21.00
2017-07-01T10:21:28.512Z,21.80
2017-07-01T10:24:19.302Z,21.70
2017-07-01T10:26:59.348Z,21.80
2017-07-01T10:33:00.331Z,22.60
2017-07-01T10:35:35.156Z,23.10
2017-07-01T10:38:16.339Z,23.10
2017-07-01T10:41:00.569Z,23.10
2017-07-01T10:43:35.300Z,23.20
2017-07-01T10:46:08.606Z,23.50
2017-07-01T10:48:40.832Z,23.60
2017-07-01T10:51:15.440Z,23.50
2017-07-01T10:53:50.480Z,23.50
2017-07-01T10:56:21.764Z,23.60
2017-07-01T10:58:52.626Z,23.50
2017-07-01T13:36:15.537Z,23.00
2017-07-01T13:38:45.221Z,23.40
2017-07-01T13:41:14.929Z,23.70
2017-07-01T13:43:44.792Z,23.90
2017-07-01T13:46:14.352Z,24.10
2017-07-01T13:48:44.300Z,24.00
2017-07-01T13:51:13.835Z,23.90
2017-07-01T13:53:43.472Z,23.70
2017-07-01T13:56:13.335Z,23.70
2017-07-01T13:58:43.243Z,23.60
2017-07-01T14:01:12.925Z,24.10
2017-07-01T14:03:42.681Z,24.30
2017-07-01T14:06:13.224Z,24.40
2017-07-01T14:08:43.167Z,24.10
2017-07-01T14:11:13.035Z,24.10
2017-07-01T14:13:42.902Z,24.30
2017-07-01T14:16:12.547Z,24.50
2017-07-01T14:18:42.408Z,24.50
2017-07-01T14:21:11.992Z,24.60
2017-07-01T14:23:41.979Z,24.70
2017-07-01T14:26:11.639Z,24.30
2017-07-01T14:28:41.244Z,24.50
2017-07-01T14:31:11.196Z,24.50
2017-07-01T14:33:40.712Z,24.40
2017-07-01T14:36:10.282Z,24.20
2017-07-01T14:38:39.919Z,24.30
2017-07-01T14:41:09.752Z,24.30
2017-07-01T14:43:39.471Z,24.10
2017-07-01T14:46:09.368Z,24.00
2017-07-01T14:48:39.639Z,23.70
2017-07-01T14:51:09.566Z,23.40
2017-07-01T14:53:40.136Z,23.30
2017-07-01T14:56:09.754Z,23.00
2017-07-01T14:58:39.296Z,22.60
2017-07-01T15:01:09.401Z,22.40
2017-07-01T15:03:39.754Z,22.20
2017-07-01T15:06:09.522Z,22.10
2017-07-01T15:08:39.099Z,21.90
2017-07-01T15:11:08.683Z,21.80
2017-07-01T15:13:38.604Z,21.70
2017-07-01T15:16:08.296Z,21.60
2017-07-01T15:18:37.943Z,21.60
2017-07-01T15:21:07.591Z,21.40
2017-07-01T15:23:37.205Z,21.20
2017-07-01T15:26:06.756Z,21.30
2017-07-01T15:28:36.280Z,21.20
2017-07-01T15:31:06.570Z,21.40
2017-07-01T15:33:36.285Z,21.50
2017-07-01T15:36:05.935Z,21.60
2017-07-01T15:38:35.678Z,21.70
2017-07-01T15:41:05.406Z,21.90
2017-07-01T15:43:35.499Z,22.00
2017-07-01T15:46:05.755Z,22.00
2017-07-01T15:48:35.344Z,22.10
2017-07-01T15:51:05.888Z,21.80
2017-07-01T15:53:35.769Z,21.90
2017-07-01T15:56:05.311Z,22.00
2017-07-01T15:58:35.042Z,21.80
2017-07-01T16:01:13.846Z,21.70
2017-07-01T16:03:43.442Z,21.40
2017-07-01T16:06:13.149Z,21.40
2017-07-01T16:08:49.159Z,21.10
2017-07-01T16:11:18.707Z,21.10
2017-07-01T16:13:48.946Z,21.20
2017-07-01T16:16:18.481Z,21.40
2017-07-01T16:18:50.241Z,21.40
2017-07-01T16:21:19.919Z,21.40
2017-07-01T16:23:49.435Z,21.50
2017-07-01T16:26:19.046Z,21.40
2017-07-01T16:28:49.178Z,21.30
2017-07-01T16:31:20.224Z,21.20
2017-07-01T16:36:29.969Z,20.80
2017-07-01T16:39:01.503Z,20.60
2017-07-01T16:41:31.452Z,20.30
2017-07-01T16:44:01.512Z,20.20
2017-07-01T16:46:31.777Z,20.10
2017-07-01T16:49:02.637Z,20.00
2017-07-01T16:51:32.930Z,19.70
2017-07-01T16:54:02.543Z,19.70
2017-07-01T16:56:32.320Z,19.70
2017-07-01T16:59:03.456Z,19.60
2017-07-01T17:01:34.156Z,19.60
2017-07-01T17:04:04.313Z,19.60
2017-07-01T17:06:34.796Z,19.40
2017-07-01T17:09:04.576Z,19.30
2017-07-01T17:11:35.029Z,19.20
2017-07-01T17:14:05.772Z,19.30
2017-07-01T17:16:37.474Z,19.20
2017-07-01T17:19:07.212Z,19.00
2017-07-01T17:21:37.075Z,18.90
2017-07-01T17:24:07.382Z,18.90
2017-07-01T17:26:37.557Z,18.90
2017-07-01T17:29:07.527Z,18.80
2017-07-01T17:31:37.791Z,18.80
2017-07-01T17:34:08.504Z,18.90
2017-07-01T17:36:38.185Z,18.90
2017-07-01T17:39:07.743Z,18.90
2017-07-01T17:41:38.004Z,18.80
2017-07-01T17:44:11.854Z,18.70
2017-07-01T17:46:41.868Z,18.60
2017-07-01T17:49:11.642Z,18.70
2017-07-01T17:51:41.481Z,18.80
2017-07-01T17:54:11.039Z,18.70
2017-07-01T17:56:40.955Z,18.50
2017-07-01T17:59:10.815Z,18.30
2017-07-01T18:01:40.328Z,18.20
2017-07-01T18:04:09.976Z,18.20
2017-07-01T18:06:39.594Z,18.20
2017-07-01T18:09:09.245Z,18.30
2017-07-01T18:11:39.019Z,18.30
2017-07-01T18:14:08.914Z,18.40
2017-07-01T18:16:38.463Z,18.40
2017-07-01T18:19:08.914Z,18.70
2017-07-01T18:21:38.793Z,18.70
2017-07-01T18:24:09.151Z,18.70
2017-07-01T18:26:39.149Z,18.80
2017-07-01T18:29:08.683Z,18.80
2017-07-01T18:31:38.252Z,18.80
2017-07-01T18:34:07.892Z,18.80
2017-07-01T18:36:37.400Z,18.80
2017-07-01T18:39:07.308Z,18.70
2017-07-01T18:41:36.972Z,18.60
2017-07-01T18:44:07.131Z,18.70
2017-07-01T18:46:36.677Z,18.70
2017-07-01T18:49:06.226Z,18.70
2017-07-01T18:51:35.772Z,18.60
2017-07-01T18:54:05.438Z,18.50
2017-07-01T18:56:35.780Z,18.30
2017-07-01T18:59:05.441Z,18.10
2017-07-01T19:01:36.446Z,18.20
2017-07-01T19:04:06.091Z,18.10
2017-07-01T19:06:35.712Z,18.10
2017-07-01T19:09:07.683Z,18.10
2017-07-01T19:11:38.579Z,17.90
2017-07-01T19:14:08.348Z,17.90
2017-07-01T19:16:37.873Z,17.80
2017-07-01T19:19:07.417Z,17.80
2017-07-01T19:21:38.330Z,17.80
2017-07-01T19:24:07.946Z,17.80
2017-07-01T19:26:38.598Z,17.70
2017-07-01T19:29:09.371Z,17.70
2017-07-01T19:33:08.747Z,17.70
2017-07-01T19:35:39.555Z,17.70
2017-07-01T19:38:09.212Z,17.70
2017-07-01T19:40:47.912Z,17.60
2017-07-01T19:43:17.995Z,17.50
2017-07-01T19:45:48.083Z,17.50
2017-07-01T19:48:20.768Z,17.50
2017-07-01T19:50:50.387Z,17.40
2017-07-01T19:53:19.937Z,17.30
2017-07-01T19:55:49.507Z,17.30
2017-07-01T19:58:19.077Z,17.50
2017-07-01T20:00:48.623Z,17.40
2017-07-01T20:03:24.005Z,17.40
2017-07-01T20:06:00.148Z,17.30
2017-07-01T20:08:30.042Z,17.30
2017-07-01T20:10:59.616Z,17.40
2017-07-01T20:13:29.192Z,17.50
2017-07-01T20:15:58.708Z,17.50
2017-07-01T20:18:28.361Z,17.50
2017-07-01T20:20:58.339Z,17.40
2017-07-01T20:23:27.905Z,17.60
2017-07-01T20:25:57.443Z,17.50
2017-07-01T20:28:26.980Z,17.50
2017-07-01T20:30:56.596Z,17.50
2017-07-01T20:33:27.876Z,17.40
2017-07-01T20:35:57.432Z,17.50
2017-07-01T20:38:27.004Z,17.50
2017-07-01T20:40:56.538Z,17.50
2017-07-01T20:43:26.108Z,17.40
2017-07-01T20:45:56.041Z,17.40
2017-07-01T20:48:25.641Z,17.50
2017-07-01T20:50:55.214Z,17.60
2017-07-01T20:53:24.764Z,17.50
2017-07-01T20:55:56.786Z,17.50
2017-07-01T20:58:27.403Z,17.50
2017-07-01T21:00:57.029Z,17.50
2017-07-01T21:03:26.638Z,17.30
2017-07-01T21:05:56.199Z,17.10
2017-07-01T21:08:25.947Z,17.20
2017-07-01T21:10:55.613Z,17.10
2017-07-01T21:13:25.211Z,17.00
2017-07-01T21:15:55.095Z,17.10
2017-07-01T21:18:24.600Z,17.10
2017-07-01T21:20:54.116Z,17.20
2017-07-01T21:23:23.701Z,17.10
2017-07-01T21:25:53.238Z,17.00
2017-07-01T21:28:23.124Z,16.70
2017-07-01T21:30:53.319Z,16.60
2017-07-01T21:33:22.891Z,16.40
2017-07-01T21:35:52.491Z,16.30
2017-07-01T21:38:22.017Z,16.10
2017-07-01T21:40:51.527Z,16.10
2017-07-01T21:43:21.114Z,16.20
2017-07-01T21:45:50.695Z,16.20
2017-07-01T21:48:20.232Z,16.20
2017-07-01T21:50:49.742Z,16.20
2017-07-01T21:53:19.263Z,16.10
2017-07-01T21:55:48.823Z,16.10
2017-07-01T21:58:18.639Z,16.20
2017-07-01T22:00:48.157Z,16.20
2017-07-01T22:03:17.766Z,16.20
2017-07-01T22:05:47.320Z,16.20
2017-07-01T22:08:16.879Z,16.00
2017-07-01T22:10:46.992Z,16.00
2017-07-01T22:13:16.539Z,16.10
2017-07-01T22:15:46.130Z,16.00
2017-07-01T22:18:15.652Z,16.00
2017-07-01T22:20:45.205Z,16.00
2017-07-01T22:23:14.752Z,16.00
2017-07-01T22:25:44.263Z,15.90
2017-07-01T22:28:13.800Z,15.90
2017-07-01T22:30:43.458Z,15.90
2017-07-01T22:33:13.137Z,15.90
2017-07-01T22:35:42.671Z,15.80
2017-07-01T22:38:12.163Z,15.80
2017-07-01T22:40:42.002Z,15.80
2017-07-01T22:43:11.523Z,15.70
2017-07-01T22:45:41.313Z,15.70
2017-07-01T22:48:10.851Z,15.70
2017-07-01T22:50:40.435Z,15.80
2017-07-01T22:53:10.284Z,15.60
2017-07-01T22:55:45.600Z,15.70
2017-07-01T22:58:15.170Z,15.70
2017-07-01T23:00:44.696Z,15.50
2017-07-01T23:03:14.217Z,15.60
2017-07-01T23:05:43.885Z,15.60
2017-07-01T23:08:13.442Z,15.70
2017-07-01T23:10:43.379Z,15.80
2017-07-01T23:13:12.908Z,15.80
2017-07-01T23:15:42.412Z,15.60
2017-07-01T23:18:11.887Z,15.70
2017-07-01T23:20:41.412Z,15.60
2017-07-01T23:23:11.638Z,15.80
2017-07-01T23:25:41.171Z,15.40
2017-07-01T23:28:10.695Z,15.20
2017-07-01T23:30:40.244Z,15.20
2017-07-01T23:33:09.771Z,15.30
2017-07-01T23:35:39.920Z,14.70
2017-07-01T23:38:09.443Z,14.80
2017-07-01T23:40:38.988Z,14.90
2017-07-01T23:43:08.523Z,14.90
2017-07-01T23:45:38.029Z,14.40
2017-07-01T23:48:07.915Z,14.80
2017-07-01T23:50:37.480Z,14.70
2017-07-01T23:53:07.283Z,14.50
2017-07-01T23:55:36.991Z,14.60
2017-07-01T23:58:06.511Z,14.40
